sensor_id;sensor_type;location;lat;lon;timestamp;temperature;humidity
66724;DHT22;53635;48.212;11.530;2022-07-04T00:00:11;21.23;71.40
66724;DHT22;53635;48.212;11.530;2022-07-04T00:02:38;21.27;70.79
66724;DHT22;53635;48.212;11.530;2022-07-04T00:05:04;21.37;71.02
66724;DHT22;53635;48.212;11.530;2022-07-04T00:07:34;20.58;80.46
66724;DHT22;53635;48.212;11.530;2022-07-04T00:09:59;18.60;97.88
66724;DHT22;53635;48.212;11.530;2022-07-04T00:12:24;18.10;91.54
66724;DHT22;53635;48.212;11.530;2022-07-04T00:14:50;18.10;91.90
66724;DHT22;53635;48.212;11.530;2022-07-04T00:17:15;18.12;92.18
66724;DHT22;53635;48.212;11.530;2022-07-04T00:19:41;18.16;92.41
66724;DHT22;53635;48.212;11.530;2022-07-04T00:22:06;18.02;92.54
66724;DHT22;53635;48.212;11.530;2022-07-04T00:24:31;18.28;92.63
66724;DHT22;53635;48.212;11.530;2022-07-04T00:26:57;18.35;92.79
66724;DHT22;53635;48.212;11.530;2022-07-04T00:29:22;18.04;92.86
66724;DHT22;53635;48.212;11.530;2022-07-04T00:31:48;18.08;92.95
66724;DHT22;53635;48.212;11.530;2022-07-04T00:34:13;17.75;93.05
66724;DHT22;53635;48.212;11.530;2022-07-04T00:36:38;17.58;93.07
66724;DHT22;53635;48.212;11.530;2022-07-04T00:39:04;17.61;93.12
66724;DHT22;53635;48.212;11.530;2022-07-04T00:41:29;17.44;93.13
66724;DHT22;53635;48.212;11.530;2022-07-04T00:44:04;17.89;93.21
66724;DHT22;53635;48.212;11.530;2022-07-04T00:46:30;17.77;93.24
66724;DHT22;53635;48.212;11.530;2022-07-04T00:48:55;17.77;93.28
66724;DHT22;53635;48.212;11.530;2022-07-04T00:51:21;17.77;93.35
66724;DHT22;53635;48.212;11.530;2022-07-04T00:53:47;17.64;93.41
66724;DHT22;53635;48.212;11.530;2022-07-04T00:56:12;17.75;93.48
66724;DHT22;53635;48.212;11.530;2022-07-04T00:58:38;17.78;93.48
66724;DHT22;53635;48.212;11.530;2022-07-04T01:01:03;17.58;93.54
66724;DHT22;53635;48.212;11.530;2022-07-04T01:03:29;17.50;93.63
66724;DHT22;53635;48.212;11.530;2022-07-04T01:05:55;17.51;93.69
66724;DHT22;53635;48.212;11.530;2022-07-04T01:08:21;17.48;93.72
66724;DHT22;53635;48.212;11.530;2022-07-04T01:10:46;17.67;93.72
66724;DHT22;53635;48.212;11.530;2022-07-04T01:13:19;17.74;93.82
66724;DHT22;53635;48.212;11.530;2022-07-04T01:15:45;17.67;93.78
66724;DHT22;53635;48.212;11.530;2022-07-04T01:18:11;17.51;93.82
66724;DHT22;53635;48.212;11.530;2022-07-04T01:20:36;17.48;93.88
66724;DHT22;53635;48.212;11.530;2022-07-04T01:23:02;17.41;93.92
66724;DHT22;53635;48.212;11.530;2022-07-04T01:25:28;17.60;93.97
66724;DHT22;53635;48.212;11.530;2022-07-04T01:27:53;17.71;94.04
66724;DHT22;53635;48.212;11.530;2022-07-04T01:30:19;17.65;94.06
66724;DHT22;53635;48.212;11.530;2022-07-04T01:32:44;17.63;94.27
66724;DHT22;53635;48.212;11.530;2022-07-04T01:35:10;17.74;95.10
66724;DHT22;53635;48.212;11.530;2022-07-04T01:37:36;17.60;96.47
66724;DHT22;53635;48.212;11.530;2022-07-04T01:40:02;17.47;95.88
66724;DHT22;53635;48.212;11.530;2022-07-04T01:42:27;17.36;95.56
66724;DHT22;53635;48.212;11.530;2022-07-04T01:44:53;17.37;95.45
66724;DHT22;53635;48.212;11.530;2022-07-04T01:47:18;17.27;95.60
66724;DHT22;53635;48.212;11.530;2022-07-04T01:49:43;17.37;95.65
66724;DHT22;53635;48.212;11.530;2022-07-04T01:52:09;17.37;95.34
66724;DHT22;53635;48.212;11.530;2022-07-04T01:54:34;17.43;95.49
66724;DHT22;53635;48.212;11.530;2022-07-04T01:57:00;17.36;95.18
66724;DHT22;53635;48.212;11.530;2022-07-04T01:59:25;17.40;95.01
66724;DHT22;53635;48.212;11.530;2022-07-04T02:02:10;17.58;95.18
66724;DHT22;53635;48.212;11.530;2022-07-04T02:04:36;17.65;95.26
66724;DHT22;53635;48.212;11.530;2022-07-04T02:07:01;17.48;94.87
66724;DHT22;53635;48.212;11.530;2022-07-04T02:09:26;17.40;94.83
66724;DHT22;53635;48.212;11.530;2022-07-04T03:41:51;17.31;93.20
66724;DHT22;53635;48.212;11.530;2022-07-04T03:44:16;17.40;93.19
66724;DHT22;53635;48.212;11.530;2022-07-04T03:46:42;17.54;92.94
66724;DHT22;53635;48.212;11.530;2022-07-04T03:49:07;17.47;92.81
66724;DHT22;53635;48.212;11.530;2022-07-04T03:51:33;17.54;92.72
66724;DHT22;53635;48.212;11.530;2022-07-04T03:53:59;17.65;93.19
66724;DHT22;53635;48.212;11.530;2022-07-04T03:56:24;17.79;93.05
66724;DHT22;53635;48.212;11.530;2022-07-04T03:58:49;17.92;93.43
66724;DHT22;53635;48.212;11.530;2022-07-04T04:01:16;17.64;93.26
66724;DHT22;53635;48.212;11.530;2022-07-04T04:03:42;17.89;93.50
66724;DHT22;53635;48.212;11.530;2022-07-04T04:06:26;17.89;93.06
66724;DHT22;53635;48.212;11.530;2022-07-04T04:08:51;17.91;93.87
66724;DHT22;53635;48.212;11.530;2022-07-04T04:11:17;17.95;92.70
66724;DHT22;53635;48.212;11.530;2022-07-04T04:13:42;17.89;93.24
66724;DHT22;53635;48.212;11.530;2022-07-04T04:16:07;17.92;92.91
66724;DHT22;53635;48.212;11.530;2022-07-04T04:18:33;17.91;93.21
66724;DHT22;53635;48.212;11.530;2022-07-04T04:20:58;17.95;92.65
66724;DHT22;53635;48.212;11.530;2022-07-04T04:23:24;18.09;93.01
66724;DHT22;53635;48.212;11.530;2022-07-04T04:25:49;18.21;93.14
66724;DHT22;53635;48.212;11.530;2022-07-04T04:28:15;18.12;93.51
66724;DHT22;53635;48.212;11.530;2022-07-04T04:30:40;18.25;92.29
66724;DHT22;53635;48.212;11.530;2022-07-04T04:33:05;18.16;92.20
66724;DHT22;53635;48.212;11.530;2022-07-04T04:35:31;18.17;92.98
66724;DHT22;53635;48.212;11.530;2022-07-04T04:37:56;18.37;92.81
66724;DHT22;53635;48.212;11.530;2022-07-04T04:40:22;18.39;92.39
66724;DHT22;53635;48.212;11.530;2022-07-04T04:42:47;18.59;92.66
66724;DHT22;53635;48.212;11.530;2022-07-04T04:45:12;18.59;92.64
66724;DHT22;53635;48.212;11.530;2022-07-04T04:47:38;18.64;92.97
66724;DHT22;53635;48.212;11.530;2022-07-04T04:50:03;18.70;91.80
66724;DHT22;53635;48.212;11.530;2022-07-04T04:52:29;18.74;93.17
66724;DHT22;53635;48.212;11.530;2022-07-04T04:54:56;18.75;92.62
66724;DHT22;53635;48.212;11.530;2022-07-04T04:57:21;18.83;92.55
66724;DHT22;53635;48.212;11.530;2022-07-04T04:59:46;18.78;93.38
66724;DHT22;53635;48.212;11.530;2022-07-04T05:02:12;18.85;93.14
66724;DHT22;53635;48.212;11.530;2022-07-04T05:04:37;19.03;92.77
66724;DHT22;53635;48.212;11.530;2022-07-04T05:07:03;19.12;92.77
66724;DHT22;53635;48.212;11.530;2022-07-04T05:09:28;19.18;92.17
66724;DHT22;53635;48.212;11.530;2022-07-04T05:11:53;19.24;92.26
66724;DHT22;53635;48.212;11.530;2022-07-04T05:14:19;19.28;92.02
66724;DHT22;53635;48.212;11.530;2022-07-04T05:16:44;19.35;91.67
66724;DHT22;53635;48.212;11.530;2022-07-04T05:19:10;19.39;92.42
66724;DHT22;53635;48.212;11.530;2022-07-04T05:21:36;19.28;92.67
66724;DHT22;53635;48.212;11.530;2022-07-04T05:24:01;19.18;92.26
66724;DHT22;53635;48.212;11.530;2022-07-04T05:26:26;19.14;93.15
66724;DHT22;53635;48.212;11.530;2022-07-04T05:28:52;19.36;94.30
66724;DHT22;53635;48.212;11.530;2022-07-04T05:31:17;19.26;93.08
66724;DHT22;53635;48.212;11.530;2022-07-04T05:33:43;19.41;94.35
66724;DHT22;53635;48.212;11.530;2022-07-04T05:36:08;19.51;92.02
66724;DHT22;53635;48.212;11.530;2022-07-04T05:38:34;19.76;93.28
66724;DHT22;53635;48.212;11.530;2022-07-04T05:41:00;19.82;93.15
66724;DHT22;53635;48.212;11.530;2022-07-04T05:43:26;19.89;92.12
66724;DHT22;53635;48.212;11.530;2022-07-04T05:45:51;19.87;89.55
66724;DHT22;53635;48.212;11.530;2022-07-04T05:48:17;19.98;90.66
66724;DHT22;53635;48.212;11.530;2022-07-04T05:50:42;20.13;93.20
66724;DHT22;53635;48.212;11.530;2022-07-04T05:53:08;20.16;91.16
66724;DHT22;53635;48.212;11.530;2022-07-04T05:55:33;20.12;92.46
66724;DHT22;53635;48.212;11.530;2022-07-04T05:58:01;20.16;90.59
66724;DHT22;53635;48.212;11.530;2022-07-04T06:00:27;20.07;89.85
66724;DHT22;53635;48.212;11.530;2022-07-04T06:02:52;20.12;90.38
66724;DHT22;53635;48.212;11.530;2022-07-04T06:05:18;19.97;90.35
66724;DHT22;53635;48.212;11.530;2022-07-04T06:07:43;19.94;90.36
66724;DHT22;53635;48.212;11.530;2022-07-04T06:10:09;19.89;88.87
66724;DHT22;53635;48.212;11.530;2022-07-04T06:12:34;19.89;89.88
66724;DHT22;53635;48.212;11.530;2022-07-04T06:15:00;19.87;90.17
66724;DHT22;53635;48.212;11.530;2022-07-04T06:17:26;19.92;88.85
66724;DHT22;53635;48.212;11.530;2022-07-04T06:19:52;19.74;87.75
66724;DHT22;53635;48.212;11.530;2022-07-04T06:22:18;19.61;90.40
66724;DHT22;53635;48.212;11.530;2022-07-04T06:24:43;19.39;89.38
66724;DHT22;53635;48.212;11.530;2022-07-04T06:27:08;19.28;89.31
66724;DHT22;53635;48.212;11.530;2022-07-04T06:29:34;19.39;89.47
66724;DHT22;53635;48.212;11.530;2022-07-04T06:32:00;19.44;88.33
66724;DHT22;53635;48.212;11.530;2022-07-04T06:34:25;19.48;88.21
66724;DHT22;53635;48.212;11.530;2022-07-04T06:37:09;19.74;88.47
66724;DHT22;53635;48.212;11.530;2022-07-04T06:39:35;19.80;85.19
66724;DHT22;53635;48.212;11.530;2022-07-04T06:42:00;19.92;85.03
66724;DHT22;53635;48.212;11.530;2022-07-04T06:44:25;20.07;85.55
66724;DHT22;53635;48.212;11.530;2022-07-04T06:46:51;20.14;85.40
66724;DHT22;53635;48.212;11.530;2022-07-04T06:49:16;20.16;83.75
66724;DHT22;53635;48.212;11.530;2022-07-04T06:51:42;20.10;85.68
66724;DHT22;53635;48.212;11.530;2022-07-04T06:54:07;20.16;84.29
66724;DHT22;53635;48.212;11.530;2022-07-04T06:56:33;20.12;83.56
66724;DHT22;53635;48.212;11.530;2022-07-04T06:58:58;20.06;83.52
66724;DHT22;53635;48.212;11.530;2022-07-04T07:01:23;19.97;84.01
66724;DHT22;53635;48.212;11.530;2022-07-04T07:03:49;20.04;84.77
66724;DHT22;53635;48.212;11.530;2022-07-04T07:06:14;20.16;85.18
66724;DHT22;53635;48.212;11.530;2022-07-04T07:08:40;19.56;91.32
66724;DHT22;53635;48.212;11.530;2022-07-04T07:11:05;19.44;90.08
66724;DHT22;53635;48.212;11.530;2022-07-04T07:13:47;19.26;91.50
66724;DHT22;53635;48.212;11.530;2022-07-04T07:16:14;19.26;91.84
66724;DHT22;53635;48.212;11.530;2022-07-04T07:18:39;19.28;92.81
66724;DHT22;53635;48.212;11.530;2022-07-04T07:21:05;19.08;93.00
66724;DHT22;53635;48.212;11.530;2022-07-04T07:23:30;18.88;94.88
66724;DHT22;53635;48.212;11.530;2022-07-04T07:25:56;18.37;96.98
66724;DHT22;53635;48.212;11.530;2022-07-04T07:28:21;18.29;98.10
66724;DHT22;53635;48.212;11.530;2022-07-04T07:30:47;18.40;97.91
66724;DHT22;53635;48.212;11.530;2022-07-04T07:33:12;18.28;96.87
66724;DHT22;53635;48.212;11.530;2022-07-04T07:35:38;18.35;97.63
66724;DHT22;53635;48.212;11.530;2022-07-04T07:38:03;18.56;98.17
66724;DHT22;53635;48.212;11.530;2022-07-04T07:40:31;18.60;97.62
66724;DHT22;53635;48.212;11.530;2022-07-04T07:42:56;18.52;97.34
66724;DHT22;53635;48.212;11.530;2022-07-04T07:45:22;18.97;97.62
66724;DHT22;53635;48.212;11.530;2022-07-04T07:47:48;19.00;96.46
66724;DHT22;53635;48.212;11.530;2022-07-04T07:50:13;18.94;95.41
66724;DHT22;53635;48.212;11.530;2022-07-04T07:52:39;19.08;95.57
66724;DHT22;53635;48.212;11.530;2022-07-04T07:55:05;19.42;95.16
66724;DHT22;53635;48.212;11.530;2022-07-04T07:57:30;19.76;93.99
66724;DHT22;53635;48.212;11.530;2022-07-04T07:59:56;19.52;92.11
66724;DHT22;53635;48.212;11.530;2022-07-04T08:02:22;19.96;93.78
66724;DHT22;53635;48.212;11.530;2022-07-04T08:05:08;19.86;91.20
66724;DHT22;53635;48.212;11.530;2022-07-04T08:07:34;19.80;92.43
66724;DHT22;53635;48.212;11.530;2022-07-04T08:09:59;20.12;92.07
66724;DHT22;53635;48.212;11.530;2022-07-04T08:12:24;20.28;89.83
66724;DHT22;53635;48.212;11.530;2022-07-04T08:14:50;20.67;90.39
66724;DHT22;53635;48.212;11.530;2022-07-04T08:17:15;20.98;88.00
66724;DHT22;53635;48.212;11.530;2022-07-04T08:19:41;20.98;88.54
66724;DHT22;53635;48.212;11.530;2022-07-04T08:22:07;21.24;85.83
66724;DHT22;53635;48.212;11.530;2022-07-04T08:24:32;21.47;86.32
66724;DHT22;53635;48.212;11.530;2022-07-04T08:26:57;21.58;84.68
66724;DHT22;53635;48.212;11.530;2022-07-04T08:29:23;21.58;83.36
66724;DHT22;53635;48.212;11.530;2022-07-04T08:31:48;21.61;83.61
66724;DHT22;53635;48.212;11.530;2022-07-04T08:34:14;21.90;81.90
66724;DHT22;53635;48.212;11.530;2022-07-04T08:36:39;22.18;80.34
66724;DHT22;53635;48.212;11.530;2022-07-04T08:39:05;22.84;80.57
66724;DHT22;53635;48.212;11.530;2022-07-04T08:41:36;23.57;74.40
66724;DHT22;53635;48.212;11.530;2022-07-04T08:44:03;24.57;73.92
66724;DHT22;53635;48.212;11.530;2022-07-04T08:46:30;24.95;70.07
66724;DHT22;53635;48.212;11.530;2022-07-04T08:48:58;24.98;66.25
66724;DHT22;53635;48.212;11.530;2022-07-04T08:51:53;26.26;65.11
66724;DHT22;53635;48.212;11.530;2022-07-04T08:54:22;27.15;62.79
66724;DHT22;53635;48.212;11.530;2022-07-04T08:57:06;27.55;61.69
66724;DHT22;53635;48.212;11.530;2022-07-04T08:59:51;28.35;58.85
66724;DHT22;53635;48.212;11.530;2022-07-04T09:02:18;28.49;55.04
66724;DHT22;53635;48.212;11.530;2022-07-04T09:04:43;28.81;57.05
66724;DHT22;53635;48.212;11.530;2022-07-04T09:07:12;28.91;55.01
66724;DHT22;53635;48.212;11.530;2022-07-04T09:09:41;29.33;51.39
66724;DHT22;53635;48.212;11.530;2022-07-04T09:12:11;29.11;55.83
66724;DHT22;53635;48.212;11.530;2022-07-04T09:14:37;30.20;53.49
66724;DHT22;53635;48.212;11.530;2022-07-04T09:17:04;31.06;53.19
66724;DHT22;53635;48.212;11.530;2022-07-04T09:19:29;31.06;49.29
66724;DHT22;53635;48.212;11.530;2022-07-04T09:21:55;31.61;47.80
66724;DHT22;53635;48.212;11.530;2022-07-04T09:24:46;30.86;50.83
66724;DHT22;53635;48.212;11.530;2022-07-04T09:27:12;30.54;49.33
66724;DHT22;53635;48.212;11.530;2022-07-04T09:29:53;30.74;50.54
66724;DHT22;53635;48.212;11.530;2022-07-04T09:32:40;31.82;46.85
66724;DHT22;53635;48.212;11.530;2022-07-04T09:35:09;32.21;46.89
66724;DHT22;53635;48.212;11.530;2022-07-04T09:37:45;32.04;47.22
66724;DHT22;53635;48.212;11.530;2022-07-04T09:42:49;32.19;47.85
66724;DHT22;53635;48.212;11.530;2022-07-04T09:45:14;31.97;46.44
66724;DHT22;53635;48.212;11.530;2022-07-04T09:47:40;32.29;46.67
66724;DHT22;53635;48.212;11.530;2022-07-04T09:50:13;33.03;46.07
66724;DHT22;53635;48.212;11.530;2022-07-04T09:52:51;33.08;43.10
66724;DHT22;53635;48.212;11.530;2022-07-04T09:55:32;32.88;43.32
66724;DHT22;53635;48.212;11.530;2022-07-04T10:02:54;33.38;42.53
66724;DHT22;53635;48.212;11.530;2022-07-04T10:05:25;33.34;42.05
66724;DHT22;53635;48.212;11.530;2022-07-04T10:07:50;33.24;41.64
66724;DHT22;53635;48.212;11.530;2022-07-04T10:10:28;34.09;42.87
66724;DHT22;53635;48.212;11.530;2022-07-04T10:12:57;33.88;42.45
66724;DHT22;53635;48.212;11.530;2022-07-04T10:15:23;33.92;42.97
66724;DHT22;53635;48.212;11.530;2022-07-04T10:17:49;33.45;43.67
66724;DHT22;53635;48.212;11.530;2022-07-04T10:20:15;34.70;40.64
66724;DHT22;53635;48.212;11.530;2022-07-04T10:22:41;35.22;39.65
66724;DHT22;53635;48.212;11.530;2022-07-04T10:25:07;35.53;40.64
66724;DHT22;53635;48.212;11.530;2022-07-04T10:27:34;34.56;38.95
66724;DHT22;53635;48.212;11.530;2022-07-04T10:30:00;36.64;38.20
66724;DHT22;53635;48.212;11.530;2022-07-04T10:32:28;36.23;38.45
66724;DHT22;53635;48.212;11.530;2022-07-04T10:34:54;34.94;41.71
66724;DHT22;53635;48.212;11.530;2022-07-04T10:37:20;33.91;44.22
66724;DHT22;53635;48.212;11.530;2022-07-04T10:39:46;33.18;41.87
66724;DHT22;53635;48.212;11.530;2022-07-04T10:42:25;32.57;43.47
66724;DHT22;53635;48.212;11.530;2022-07-04T10:44:51;31.64;44.99
66724;DHT22;53635;48.212;11.530;2022-07-04T10:47:23;31.85;43.73
66724;DHT22;53635;48.212;11.530;2022-07-04T10:49:49;32.08;44.92
66724;DHT22;53635;48.212;11.530;2022-07-04T10:52:15;32.28;42.39
66724;DHT22;53635;48.212;11.530;2022-07-04T10:54:42;32.36;43.56
66724;DHT22;53635;48.212;11.530;2022-07-04T10:59:39;31.84;43.09
66724;DHT22;53635;48.212;11.530;2022-07-04T11:04:50;32.05;43.85
66724;DHT22;53635;48.212;11.530;2022-07-04T11:07:17;31.94;44.28
66724;DHT22;53635;48.212;11.530;2022-07-04T11:09:43;32.14;44.75
66724;DHT22;53635;48.212;11.530;2022-07-04T11:12:10;32.69;44.15
66724;DHT22;53635;48.212;11.530;2022-07-04T11:19:38;32.52;43.96
66724;DHT22;53635;48.212;11.530;2022-07-04T11:22:05;32.73;43.81
66724;DHT22;53635;48.212;11.530;2022-07-04T11:24:31;33.33;42.88
66724;DHT22;53635;48.212;11.530;2022-07-04T11:26:57;33.68;42.71
66724;DHT22;53635;48.212;11.530;2022-07-04T11:29:23;34.01;42.27
66724;DHT22;53635;48.212;11.530;2022-07-04T11:31:50;34.61;39.78
66724;DHT22;53635;48.212;11.530;2022-07-04T11:34:15;35.14;40.40
66724;DHT22;53635;48.212;11.530;2022-07-04T11:36:43;35.96;38.44
66724;DHT22;53635;48.212;11.530;2022-07-04T11:39:11;35.38;39.05
66724;DHT22;53635;48.212;11.530;2022-07-04T11:41:42;36.31;39.47
66724;DHT22;53635;48.212;11.530;2022-07-04T11:44:31;36.23;39.36
66724;DHT22;53635;48.212;11.530;2022-07-04T11:49:53;34.57;39.22
66724;DHT22;53635;48.212;11.530;2022-07-04T11:52:27;33.34;42.12
66724;DHT22;53635;48.212;11.530;2022-07-04T11:54:53;34.10;41.09
66724;DHT22;53635;48.212;11.530;2022-07-04T11:57:24;37.77;38.46
66724;DHT22;53635;48.212;11.530;2022-07-04T12:02:19;35.02;40.97
66724;DHT22;53635;48.212;11.530;2022-07-04T12:04:44;35.28;43.19
66724;DHT22;53635;48.212;11.530;2022-07-04T12:07:11;37.52;37.71
66724;DHT22;53635;48.212;11.530;2022-07-04T12:09:37;37.45;36.63
66724;DHT22;53635;48.212;11.530;2022-07-04T12:12:03;36.70;36.51
66724;DHT22;53635;48.212;11.530;2022-07-04T12:14:29;39.50;36.27
66724;DHT22;53635;48.212;11.530;2022-07-04T12:19:35;40.09;31.47
66724;DHT22;53635;48.212;11.530;2022-07-04T12:22:01;40.87;32.14
66724;DHT22;53635;48.212;11.530;2022-07-04T12:24:27;39.07;33.00
66724;DHT22;53635;48.212;11.530;2022-07-04T12:26:52;38.10;33.86
66724;DHT22;53635;48.212;11.530;2022-07-04T12:29:23;39.60;35.07
66724;DHT22;53635;48.212;11.530;2022-07-04T12:31:51;39.47;36.29
66724;DHT22;53635;48.212;11.530;2022-07-04T12:34:18;38.24;36.50
66724;DHT22;53635;48.212;11.530;2022-07-04T12:36:55;37.06;36.68
66724;DHT22;53635;48.212;11.530;2022-07-04T12:39:34;36.37;38.76
66724;DHT22;53635;48.212;11.530;2022-07-04T12:42:16;34.86;40.34
66724;DHT22;53635;48.212;11.530;2022-07-04T12:44:43;34.30;42.07
66724;DHT22;53635;48.212;11.530;2022-07-04T12:47:10;33.62;44.74
66724;DHT22;53635;48.212;11.530;2022-07-04T12:49:37;34.77;41.92
66724;DHT22;53635;48.212;11.530;2022-07-04T12:52:04;34.97;41.80
66724;DHT22;53635;48.212;11.530;2022-07-04T12:54:30;35.45;42.25
66724;DHT22;53635;48.212;11.530;2022-07-04T12:57:21;35.68;39.78
66724;DHT22;53635;48.212;11.530;2022-07-04T12:59:46;34.53;41.51
66724;DHT22;53635;48.212;11.530;2022-07-04T13:02:13;34.71;42.37
66724;DHT22;53635;48.212;11.530;2022-07-04T13:04:38;35.65;40.48
66724;DHT22;53635;48.212;11.530;2022-07-04T13:07:15;35.75;41.41
66724;DHT22;53635;48.212;11.530;2022-07-04T13:09:45;36.24;40.49
66724;DHT22;53635;48.212;11.530;2022-07-04T13:12:12;35.42;40.84
66724;DHT22;53635;48.212;11.530;2022-07-04T13:14:54;36.21;41.57
66724;DHT22;53635;48.212;11.530;2022-07-04T13:17:20;33.65;42.50
66724;DHT22;53635;48.212;11.530;2022-07-04T13:19:46;34.27;41.57
66724;DHT22;53635;48.212;11.530;2022-07-04T13:22:11;33.62;41.82
66724;DHT22;53635;48.212;11.530;2022-07-04T13:24:37;34.09;42.33
66724;DHT22;53635;48.212;11.530;2022-07-04T13:27:03;34.46;43.11
66724;DHT22;53635;48.212;11.530;2022-07-04T13:29:28;34.39;39.90
66724;DHT22;53635;48.212;11.530;2022-07-04T13:31:54;34.33;43.45
66724;DHT22;53635;48.212;11.530;2022-07-04T13:34:19;35.15;41.44
66724;DHT22;53635;48.212;11.530;2022-07-04T13:36:45;35.18;41.94
66724;DHT22;53635;48.212;11.530;2022-07-04T13:39:11;35.63;40.33
66724;DHT22;53635;48.212;11.530;2022-07-04T13:41:36;35.56;41.31
66724;DHT22;53635;48.212;11.530;2022-07-04T13:44:04;36.31;38.75
66724;DHT22;53635;48.212;11.530;2022-07-04T13:46:30;35.86;39.16
66724;DHT22;53635;48.212;11.530;2022-07-04T13:49:00;35.18;39.51
66724;DHT22;53635;48.212;11.530;2022-07-04T13:51:26;36.24;38.98
66724;DHT22;53635;48.212;11.530;2022-07-04T13:53:51;36.07;38.52
66724;DHT22;53635;48.212;11.530;2022-07-04T13:56:16;34.84;38.78
66724;DHT22;53635;48.212;11.530;2022-07-04T13:58:44;33.92;40.22
66724;DHT22;53635;48.212;11.530;2022-07-04T14:01:10;33.37;40.48
66724;DHT22;53635;48.212;11.530;2022-07-04T14:03:36;34.16;41.06
66724;DHT22;53635;48.212;11.530;2022-07-04T14:06:01;34.22;41.04
66724;DHT22;53635;48.212;11.530;2022-07-04T14:08:27;33.83;40.43
66724;DHT22;53635;48.212;11.530;2022-07-04T14:10:52;34.94;41.36
66724;DHT22;53635;48.212;11.530;2022-07-04T14:13:18;35.05;41.20
66724;DHT22;53635;48.212;11.530;2022-07-04T14:15:43;34.40;41.38
66724;DHT22;53635;48.212;11.530;2022-07-04T14:18:08;34.57;40.60
66724;DHT22;53635;48.212;11.530;2022-07-04T14:20:38;34.10;40.34
66724;DHT22;53635;48.212;11.530;2022-07-04T14:23:04;34.16;41.33
66724;DHT22;53635;48.212;11.530;2022-07-04T14:25:29;35.85;39.65
66724;DHT22;53635;48.212;11.530;2022-07-04T14:27:55;37.50;36.59
66724;DHT22;53635;48.212;11.530;2022-07-04T14:30:20;35.48;38.03
66724;DHT22;53635;48.212;11.530;2022-07-04T14:32:45;33.62;40.89
66724;DHT22;53635;48.212;11.530;2022-07-04T14:35:11;33.40;41.57
66724;DHT22;53635;48.212;11.530;2022-07-04T14:37:38;32.45;42.26
66724;DHT22;53635;48.212;11.530;2022-07-04T14:40:04;31.66;43.67
66724;DHT22;53635;48.212;11.530;2022-07-04T14:42:29;31.66;44.59
66724;DHT22;53635;48.212;11.530;2022-07-04T14:44:55;31.47;46.85
66724;DHT22;53635;48.212;11.530;2022-07-04T14:47:20;31.26;46.13
66724;DHT22;53635;48.212;11.530;2022-07-04T14:49:45;31.87;46.42
66724;DHT22;53635;48.212;11.530;2022-07-04T14:52:11;33.81;45.24
66724;DHT22;53635;48.212;11.530;2022-07-04T14:54:36;34.83;37.96
66724;DHT22;53635;48.212;11.530;2022-07-04T14:57:02;33.76;40.35
66724;DHT22;53635;48.212;11.530;2022-07-04T14:59:28;33.95;40.56
66724;DHT22;53635;48.212;11.530;2022-07-04T15:01:53;33.54;40.54
66724;DHT22;53635;48.212;11.530;2022-07-04T15:04:19;33.55;41.07
66724;DHT22;53635;48.212;11.530;2022-07-04T15:06:44;33.17;42.32
66724;DHT22;53635;48.212;11.530;2022-07-04T15:09:10;32.57;43.67
66724;DHT22;53635;48.212;11.530;2022-07-04T15:11:36;33.27;41.85
66724;DHT22;53635;48.212;11.530;2022-07-04T15:14:01;33.30;41.35
66724;DHT22;53635;48.212;11.530;2022-07-04T15:16:27;33.51;43.05
66724;DHT22;53635;48.212;11.530;2022-07-04T15:18:53;32.52;44.47
66724;DHT22;53635;48.212;11.530;2022-07-04T15:21:19;31.46;47.32
66724;DHT22;53635;48.212;11.530;2022-07-04T15:24:03;31.29;45.33
66724;DHT22;53635;48.212;11.530;2022-07-04T15:26:48;30.59;48.73
66724;DHT22;53635;48.212;11.530;2022-07-04T15:29:15;30.67;49.24
66724;DHT22;53635;48.212;11.530;2022-07-04T15:31:42;31.02;46.09
66724;DHT22;53635;48.212;11.530;2022-07-04T15:34:07;30.71;48.64
66724;DHT22;53635;48.212;11.530;2022-07-04T15:36:33;30.90;46.76
66724;DHT22;53635;48.212;11.530;2022-07-04T15:38:58;30.37;48.13
66724;DHT22;53635;48.212;11.530;2022-07-04T15:41:24;30.04;48.22
66724;DHT22;53635;48.212;11.530;2022-07-04T15:43:49;32.07;45.31
66724;DHT22;53635;48.212;11.530;2022-07-04T15:46:14;30.07;47.16
66724;DHT22;53635;48.212;11.530;2022-07-04T15:48:40;29.39;47.92
66724;DHT22;53635;48.212;11.530;2022-07-04T15:51:05;29.19;47.56
66724;DHT22;53635;48.212;11.530;2022-07-04T15:53:31;28.64;50.12
66724;DHT22;53635;48.212;11.530;2022-07-04T15:55:56;28.54;50.78
66724;DHT22;53635;48.212;11.530;2022-07-04T15:58:21;28.82;51.19
66724;DHT22;53635;48.212;11.530;2022-07-04T16:00:47;28.50;51.06
66724;DHT22;53635;48.212;11.530;2022-07-04T16:03:15;28.74;51.69
66724;DHT22;53635;48.212;11.530;2022-07-04T16:05:44;28.68;53.37
66724;DHT22;53635;48.212;11.530;2022-07-04T16:08:09;28.44;53.72
66724;DHT22;53635;48.212;11.530;2022-07-04T16:10:35;28.39;52.37
66724;DHT22;53635;48.212;11.530;2022-07-04T16:13:01;28.27;52.44
66724;DHT22;53635;48.212;11.530;2022-07-04T16:15:26;28.24;51.57
66724;DHT22;53635;48.212;11.530;2022-07-04T16:17:52;28.46;51.91
66724;DHT22;53635;48.212;11.530;2022-07-04T16:20:17;28.12;49.70
66724;DHT22;53635;48.212;11.530;2022-07-04T16:22:44;27.99;50.28
66724;DHT22;53635;48.212;11.530;2022-07-04T16:25:10;27.84;51.14
66724;DHT22;53635;48.212;11.530;2022-07-04T16:27:35;27.82;52.96
66724;DHT22;53635;48.212;11.530;2022-07-04T16:30:01;27.71;51.10
66724;DHT22;53635;48.212;11.530;2022-07-04T16:32:30;27.61;52.30
66724;DHT22;53635;48.212;11.530;2022-07-04T16:34:57;27.66;52.58
66724;DHT22;53635;48.212;11.530;2022-07-04T16:37:22;27.53;53.81
66724;DHT22;53635;48.212;11.530;2022-07-04T16:39:48;27.62;54.63
66724;DHT22;53635;48.212;11.530;2022-07-04T16:42:13;27.66;54.33
66724;DHT22;53635;48.212;11.530;2022-07-04T16:44:39;27.61;54.87
66724;DHT22;53635;48.212;11.530;2022-07-04T16:47:04;27.43;56.14
66724;DHT22;53635;48.212;11.530;2022-07-04T16:49:30;27.35;55.64
66724;DHT22;53635;48.212;11.530;2022-07-04T16:51:55;27.44;53.98
66724;DHT22;53635;48.212;11.530;2022-07-04T16:54:20;27.58;54.53
66724;DHT22;53635;48.212;11.530;2022-07-04T16:56:46;27.51;56.01
66724;DHT22;53635;48.212;11.530;2022-07-04T16:59:11;27.44;53.91
66724;DHT22;53635;48.212;11.530;2022-07-04T17:01:36;27.44;54.34
66724;DHT22;53635;48.212;11.530;2022-07-04T17:04:05;27.30;54.67
66724;DHT22;53635;48.212;11.530;2022-07-04T17:06:31;27.20;55.71
66724;DHT22;53635;48.212;11.530;2022-07-04T17:08:56;27.23;54.76